This is the latest recevied weather packets stored in our database for station/object N0QV. If no packets are shown the sender has not sent any weather packets the latest 10 day(s).
| Time | Temp. | Humidity | Pressure | Rain* | Wind** | Luminosity | Snow |
|---|---|---|---|---|---|---|---|
| 1777470138 | 8.33° C | 51% | 1020.3 hPa | 0 mm | - | 289 W/m² | - |
| 1777469834 | 8.33° C | 52% | 1020.5 hPa | 0 mm | - | 271 W/m² | - |
| 1777469530 | 8.33° C | 53% | 1020.5 hPa | 0 mm | - | 244 W/m² | - |
| 1777469224 | 7.78° C | 54% | 1020.6 hPa | 0 mm | - | 237 W/m² | - |
| 1777468925 | 7.22° C | 55% | 1020.4 hPa | 0 mm | - | 224 W/m² | - |
| 1777468621 | 7.78° C | 53% | 1020.4 hPa | 0 mm | - | 208 W/m² | - |
| 1777468318 | 7.22° C | 56% | 1020.5 hPa | 0 mm | - | 197 W/m² | - |
| 1777468014 | 6.67° C | 56% | 1020.1 hPa | 0 mm | - | 184 W/m² | - |
| 1777467710 | 7.22° C | 56% | 1020.3 hPa | 0 mm | - | 173 W/m² | - |
| 1777467406 | 6.67° C | 57% | 1020.1 hPa | 0 mm | - | 154 W/m² | - |
| 1777467101 | 6.67° C | 59% | 1020.3 hPa | 0 mm | - | 141 W/m² | - |
| 1777466798 | 6.67° C | 59% | 1020.3 hPa | 0 mm | - | 124 W/m² | - |
| 1777466497 | 6.67° C | 59% | 1020.1 hPa | 0 mm | - | 114 W/m² | - |
| 1777466193 | 6.11° C | 59% | 1020.1 hPa | 0 mm | - | 103 W/m² | - |
| 1777465889 | 6.11° C | 60% | 1020.3 hPa | 0 mm | - | 95 W/m² | - |
| 1777465585 | 6.11° C | 59% | 1020.1 hPa | 0 mm | - | 59 W/m² | - |
| 1777465281 | 5.56° C | 62% | 1020.1 hPa | 0 mm | - | 51 W/m² | - |
| 1777464975 | 5.56° C | 63% | 1019.8 hPa | 0 mm | - | 45 W/m² | - |
| 1777464670 | 5.56° C | 63% | 1019.9 hPa | 0 mm | - | 42 W/m² | - |
| 1777464367 | 5.56° C | 64% | 1019.8 hPa | 0 mm | - | 38 W/m² | - |
| 1777464062 | 5° C | 65% | 1019.7 hPa | 0 mm | - | 34 W/m² | - |
| 1777463757 | 5° C | 66% | 1019.7 hPa | 0 mm | - | 31 W/m² | - |
| 1777463452 | 5° C | 66% | 1019.7 hPa | 0 mm | - | 27 W/m² | - |
| 1777463148 | 4.44° C | 67% | 1019.7 hPa | 0 mm | - | 23 W/m² | - |
| 1777462844 | 4.44° C | 68% | 1019.6 hPa | 0 mm | - | 19 W/m² | - |
* Rain latest hour (hover to see other rain measurements)
** Current wind speed in m/s (hover to see current wind gust speed)